Flight Track Log - Related Links

Times and Time Zones

All times are in EDT time to prevent confusion due to time zone crossing. See the QXE2396 flight status page for this flight to view local times or setup timezone preferences in your user account.

Time Position Orientation Groundspeed Altitude Reporting Facility
EDT Latitude Longitude Course Direction KTS MPH feet Rate Location/Type
Tue 09:19:35 PM 47.4669 -122.3125 92° East 144 166 1,200  Level Seattle Center
Tue 09:20:36 PM 47.5111 -122.2947 15° North 195 224 2,700 1,707 Climbing Seattle Center
Tue 09:21:31 PM 47.5225 -122.2161 78° East 238 274 4,500 1,846 Climbing Seattle Center
Tue 09:21:54 PM 47.5142 -122.1836 111° Southeast 230 265 5,100 1,786 Climbing Seattle Center
Tue 09:22:55 PM 47.4911 -122.0883 110° East 248 285 7,000 1,672 Climbing Seattle Center
Tue 09:23:56 PM 47.4733 -121.9839 104° East 264 304 8,500 1,525 Climbing Seattle Center
Tue 09:24:57 PM 47.4544 -121.8719 104° East 283 326 10,100 1,525 Climbing Seattle Center
Tue 09:25:00 PM 47.4255 -121.5495 92° East  Level Estimated
Tue 09:25:58 PM 47.4344 -121.7567 104° East 291 335 11,600  Level Seattle Center
Tue 09:26:58 PM 47.4261 -121.6353 96° East 304 350 13,100 1,488 Climbing Seattle Center
Tue 09:27:59 PM 47.4264 -121.5136 90° East 303 349 14,600 1,426 Climbing Seattle Center
Tue 09:29:00 PM 47.4244 -121.3839 91° East 312 359 16,000 1,525 Climbing Seattle Center
Tue 09:30:01 PM 47.4211 -121.2336 92° East 316 364 17,700 1,230 Climbing Seattle Center
Tue 09:31:02 PM 47.4183 -121.1036 92° East 322 371 18,500 934 Climbing Seattle Center
Tue 09:32:03 PM 47.4169 -120.9722 91° East 323 372 19,600 1,131 Climbing Seattle Center
Tue 09:33:04 PM 47.4147 -120.8417 91° East 324 373 20,800 1,131 Climbing Seattle Center
Tue 09:34:05 PM 47.4108 -120.7139 93° East 323 372 21,900 1,041 Climbing Seattle Center
Tue 09:35:05 PM 47.4075 -120.5842 92° East 319 367 22,900 992 Climbing Seattle Center
Tue 09:36:06 PM 47.4056 -120.4575 91° East 312 359 23,900 836 Climbing Seattle Center
Tue 09:37:07 PM 47.4025 -120.3283 92° East 313 360 24,600 492 Climbing Seattle Center
Tue 09:38:08 PM 47.3997 -120.1978 92° East 318 366 24,900 197 Climbing Seattle Center
Tue 09:39:09 PM 47.3950 -120.0314 92° East 338 389 25,000 49 Climbing Seattle Center
Tue 09:40:10 PM 47.3917 -119.8850 92° East 354 407 25,000  Level Seattle Center
Tue 09:41:10 PM 47.3858 -119.7358 93° East 364 419 25,000  Level Seattle Center
Tue 09:42:11 PM 47.3819 -119.5864 92° East 367 422 25,000  Level Seattle Center
Tue 09:43:12 PM 47.3778 -119.4344 92° East 371 427 25,000  Level Seattle Center
Tue 09:44:13 PM 47.3808 -119.2858 88° East 366 421 25,000  Level Seattle Center
Tue 09:45:14 PM 47.3875 -119.1369 86° East 364 419 25,000  Level Seattle Center
Tue 09:46:15 PM 47.3917 -118.9889 88° East 363 418 25,000  Level Seattle Center
Tue 09:47:15 PM 47.3958 -118.8375 88° East 368 423 25,000  Level Seattle Center
Tue 09:48:16 PM 47.4011 -118.6858 87° East 370 426 25,000 -49 Level Seattle Center
Tue 09:49:17 PM 47.4056 -118.5353 87° East 369 425 24,900  Descending Seattle Center
Tue 09:50:18 PM 47.4100 -118.3861 87° East 367 422 25,000 50 Climbing Seattle Center
Tue 09:51:18 PM 47.4147 -118.2375 87° East 363 418 25,000 -50 Level Seattle Center
Tue 09:52:19 PM 47.4186 -118.0875 88° East 368 423 24,900  Descending Seattle Center
Tue 09:53:20 PM 47.4219 -117.9386 88° East 366 421 25,000  Climbing Seattle Center
Tue 09:54:21 PM 47.4269 -117.7592 88° East 366 421 24,900  Descending Seattle Center
Tue 09:55:22 PM 47.4306 -117.6131 88° East 360 414 25,000 50 Climbing Seattle Center
Tue 09:56:22 PM 47.4339 -117.4672 88° East 358 412 25,000  Level Seattle Center
Tue 09:57:23 PM 47.4372 -117.3225 88° East 356 410 25,000  Level Seattle Center
Tue 09:58:24 PM 47.4392 -117.1792 89° East 354 407 25,000  Level Seattle Center
Tue 09:59:26 PM 47.4414 -117.0367 89° East 357 411 25,000  Level Seattle Center
Tue 10:00:27 PM 47.4444 -116.8944 88° East 354 407 25,000  Level Seattle Center
Tue 10:01:28 PM 47.4472 -116.7194 89° East 359 413 25,000  Level Seattle Center
Tue 10:02:29 PM 47.4489 -116.5731 89° East 359 413 25,000  Level Seattle Center
Tue 10:03:30 PM 47.4506 -116.4256 89° East 360 414 25,000 -50 Level Seattle Center
Tue 10:04:30 PM 47.4511 -116.2792 90° East 359 413 24,900  Descending Seattle Center
Tue 10:05:31 PM 47.4528 -116.1308 89° East 361 415 25,000 49 Climbing Seattle Center
Tue 10:06:32 PM 47.4544 -115.9825 89° East 362 417 25,000 -49 Level Seattle Center
Tue 10:07:33 PM 47.4550 -115.8342 90° East 362 417 24,900  Descending Seattle Center
Tue 10:08:34 PM 47.4561 -115.6819 89° East 357 411 25,000 50 Climbing Seattle Center
Tue 10:09:34 PM 47.4267 -115.5478 108° East 358 412 25,000 -198 Level Seattle Center
Tue 10:10:35 PM 47.3789 -115.4197 119° Southeast 358 412 24,600 -1,541 Descending Seattle Center
Tue 10:12:37 PM 47.3072 -115.1700 113° Southeast 321 369 20,300 -2,066 Descending Seattle Center
Tue 10:13:38 PM 47.2614 -115.0569 121° Southeast 322 371 18,300 -1,820 Descending Seattle Center
Tue 10:14:39 PM 47.2356 -114.9406 108° East 309 356 16,600 -1,835 Descending Seattle Center
Tue 10:15:39 PM 47.2336 -114.8211 91° East 295 339 14,600 -1,934 Descending Seattle Center
Tue 10:16:40 PM 47.2322 -114.7011 91° East 294 338 12,700 -1,629 Descending Seattle Center
Tue 10:18:10 PM 47.1806 -114.5422 116° Southeast 279 321 10,500 -1,113 Descending Salt Lake Center
Tue 10:19:11 PM 47.1344 -114.4694 133° Southeast 226 260 9,900 -927 Descending Salt Lake Center
Tue 10:20:13 PM 47.0956 -114.4014 130° Southeast 218 251 8,600 -1,171 Descending Salt Lake Center
Tue 10:21:14 PM 47.0611 -114.3425 131° Southeast 195 224 7,500 -1,082 Descending Salt Lake Center
Tue 10:22:15 PM 47.0264 -114.2808 130° Southeast 185 213 6,400 -1,024 Descending Salt Lake Center
Tue 10:23:17 PM 46.9947 -114.2275 131° Southeast 177 204 5,400 -878 Descending Salt Lake Center
Tue 10:24:18 PM 46.9672 -114.1800 130° Southeast 160 184 4,600 -780 Descending Salt Lake Center
Tue 10:25:20 PM 46.9428 -114.1381 130° Southeast 141 162 3,800 -683 Descending Salt Lake Center
Tue 10:26:21 PM 46.9183 -114.0972 131° Southeast 140 161 3,200 -590 Descending Salt Lake Center

Login

Don't have an account? Register now (free) for customized features, flight alerts, and more!